Navarino, Wisconsin
Current Conditions -  °F | °C
As of 8:35 PM on Sunday 23 Nov 2014 (Local Time) from KEZS Reporting Station
Drizzle Drizzle  
Wind Chill: 41°   Ceiling: 300
Heat Index: 44°   Visibility: 0mi
Dew Point: 42°   Wind: 5mph
Humidity: 95%   Direction: 70°ENE
Pressure: 29.3"   Gusts: NA
Location:  44.7353°N, 88.4379°W
Report Text: KEZS 240235Z AUTO 07004KT M1/4SM -DZ OVC003 07/06 A2930 RMK AO2 P0001 T00650058
Loading
Personal Weather Stations






























Interactive Weather Map New forecast layout! Learn more

10-Day Weather Forecast

Advertisements
Track Severe Weather on mobile